sensor_id;sensor_type;location;lat;lon;timestamp;pressure;altitude;pressure_sealevel;temperature;humidity
45523;BME280;31254;51.680;5.394;2023-02-12T00:01:15;103871.75;;;8.87;83.22
45523;BME280;31254;51.680;5.394;2023-02-12T00:03:42;103877.97;;;8.90;83.23
45523;BME280;31254;51.680;5.394;2023-02-12T00:06:11;103844.28;;;8.71;82.83
45523;BME280;31254;51.680;5.394;2023-02-12T00:08:41;103884.44;;;8.88;83.01
45523;BME280;31254;51.680;5.394;2023-02-12T00:11:14;103874.34;;;8.90;82.98
45523;BME280;31254;51.680;5.394;2023-02-12T00:13:41;103859.50;;;8.76;82.94
45523;BME280;31254;51.680;5.394;2023-02-12T00:16:11;103859.50;;;8.76;82.82
45523;BME280;31254;51.680;5.394;2023-02-12T00:18:41;103866.44;;;8.84;82.87
45523;BME280;31254;51.680;5.394;2023-02-12T00:21:08;103790.19;;;8.41;82.65
45523;BME280;31254;51.680;5.394;2023-02-12T00:23:37;103878.94;;;8.89;82.74
45523;BME280;31254;51.680;5.394;2023-02-12T00:26:08;103872.56;;;8.89;82.68
45523;BME280;31254;51.680;5.394;2023-02-12T00:28:36;103863.22;;;8.74;82.84
45523;BME280;31254;51.680;5.394;2023-02-12T00:33:35;103884.44;;;8.88;82.86
45523;BME280;31254;51.680;5.394;2023-02-12T00:36:03;103850.72;;;8.70;82.55
45523;BME280;31254;51.680;5.394;2023-02-12T00:38:30;103852.66;;;8.66;82.72
45523;BME280;31254;51.680;5.394;2023-02-12T00:40:56;103888.97;;;8.87;82.75
45523;BME280;31254;51.680;5.394;2023-02-12T00:43:23;103870.50;;;8.73;82.92
45523;BME280;31254;51.680;5.394;2023-02-12T00:45:52;103882.97;;;8.79;83.07
45523;BME280;31254;51.680;5.394;2023-02-12T00:48:21;103872.13;;;8.77;82.79
45523;BME280;31254;51.680;5.394;2023-02-12T00:50:51;103887.41;;;8.82;82.43
45523;BME280;31254;51.680;5.394;2023-02-12T00:53:17;103870.63;;;8.70;82.76
45523;BME280;31254;51.680;5.394;2023-02-12T00:55:45;103885.56;;;8.82;82.95
45523;BME280;31254;51.680;5.394;2023-02-12T00:58:14;103881.28;;;8.76;82.87
45523;BME280;31254;51.680;5.394;2023-02-12T01:00:44;103872.31;;;8.73;82.82
45523;BME280;31254;51.680;5.394;2023-02-12T01:03:11;103881.22;;;8.78;83.18
45523;BME280;31254;51.680;5.394;2023-02-12T01:05:43;103818.19;;;8.45;82.81
45523;BME280;31254;51.680;5.394;2023-02-12T01:08:11;103867.66;;;8.76;82.83
45523;BME280;31254;51.680;5.394;2023-02-12T01:10:39;103861.66;;;8.68;82.65
45523;BME280;31254;51.680;5.394;2023-02-12T01:13:06;103873.19;;;8.75;83.14
45523;BME280;31254;51.680;5.394;2023-02-12T01:15:33;103876.78;;;8.75;82.63
45523;BME280;31254;51.680;5.394;2023-02-12T01:17:59;103866.31;;;8.65;82.88
45523;BME280;31254;51.680;5.394;2023-02-12T01:20:26;103867.09;;;8.68;83.54
45523;BME280;31254;51.680;5.394;2023-02-12T01:22:53;103875.97;;;8.73;83.18
45523;BME280;31254;51.680;5.394;2023-02-12T01:25:19;103855.50;;;8.63;82.99
45523;BME280;31254;51.680;5.394;2023-02-12T01:27:46;103854.88;;;8.56;83.06
45523;BME280;31254;51.680;5.394;2023-02-12T01:30:14;103868.84;;;8.69;82.88
45523;BME280;31254;51.680;5.394;2023-02-12T01:32:41;103805.88;;;8.34;83.20
45523;BME280;31254;51.680;5.394;2023-02-12T01:35:12;103866.13;;;8.69;83.22
45523;BME280;31254;51.680;5.394;2023-02-12T01:37:39;103843.91;;;8.58;83.25
45523;BME280;31254;51.680;5.394;2023-02-12T01:40:07;103865.19;;;8.70;82.87
45523;BME280;31254;51.680;5.394;2023-02-12T01:42:34;103842.28;;;8.54;83.24
45523;BME280;31254;51.680;5.394;2023-02-12T01:47:42;103826.16;;;8.49;83.19
45523;BME280;31254;51.680;5.394;2023-02-12T01:50:14;103858.09;;;8.66;82.96
45523;BME280;31254;51.680;5.394;2023-02-12T01:52:45;103860.94;;;8.63;83.00
45523;BME280;31254;51.680;5.394;2023-02-12T01:55:14;103887.09;;;8.67;83.32
45523;BME280;31254;51.680;5.394;2023-02-12T01:57:42;103876.22;;;8.67;83.46
45523;BME280;31254;51.680;5.394;2023-02-12T02:00:14;103877.09;;;8.68;83.18
45523;BME280;31254;51.680;5.394;2023-02-12T02:02:45;103876.22;;;8.67;83.53
45523;BME280;31254;51.680;5.394;2023-02-12T02:05:19;103855.84;;;8.55;83.40
45523;BME280;31254;51.680;5.394;2023-02-12T02:07:49;103843.41;;;8.48;83.12
45523;BME280;31254;51.680;5.394;2023-02-12T02:10:15;103855.78;;;8.57;82.96
45523;BME280;31254;51.680;5.394;2023-02-12T02:12:42;103855.91;;;8.54;82.48
45523;BME280;31254;51.680;5.394;2023-02-12T02:15:28;103861.22;;;8.57;83.02
45523;BME280;31254;51.680;5.394;2023-02-12T02:18:11;103879.13;;;8.63;83.20
45523;BME280;31254;51.680;5.394;2023-02-12T02:29:43;103846.19;;;8.47;83.09
45523;BME280;31254;51.680;5.394;2023-02-12T02:32:30;103856.84;;;8.53;82.72
45523;BME280;31254;51.680;5.394;2023-02-12T02:35:12;103855.00;;;8.53;82.92
45523;BME280;31254;51.680;5.394;2023-02-12T02:45:29;103841.19;;;8.36;83.06
45523;BME280;31254;51.680;5.394;2023-02-12T02:48:09;103871.13;;;8.58;82.79
45523;BME280;31254;51.680;5.394;2023-02-12T02:50:45;103863.88;;;8.58;82.89
45523;BME280;31254;51.680;5.394;2023-02-12T02:53:18;103780.00;;;8.02;82.61
45523;BME280;31254;51.680;5.394;2023-02-12T02:55:52;103878.50;;;8.56;82.61
45523;BME280;31254;51.680;5.394;2023-02-12T02:58:22;103848.09;;;8.45;83.00
45523;BME280;31254;51.680;5.394;2023-02-12T03:00:54;103862.09;;;8.57;82.82
45523;BME280;31254;51.680;5.394;2023-02-12T03:03:48;103858.50;;;8.57;83.09
45523;BME280;31254;51.680;5.394;2023-02-12T03:06:40;103855.19;;;8.49;82.96
45523;BME280;31254;51.680;5.394;2023-02-12T03:11:48;103815.84;;;8.34;83.00
45523;BME280;31254;51.680;5.394;2023-02-12T03:14:23;103855.84;;;8.55;83.15
45523;BME280;31254;51.680;5.394;2023-02-12T03:17:31;103859.69;;;8.50;82.88
45523;BME280;31254;51.680;5.394;2023-02-12T03:20:07;103830.38;;;8.34;82.88
45523;BME280;31254;51.680;5.394;2023-02-12T03:22:43;103842.59;;;8.46;82.61
45523;BME280;31254;51.680;5.394;2023-02-12T03:25:17;103855.97;;;8.52;83.02
45523;BME280;31254;51.680;5.394;2023-02-12T03:28:20;103836.63;;;8.36;82.83
45523;BME280;31254;51.680;5.394;2023-02-12T03:36:27;103855.19;;;8.49;82.77
45523;BME280;31254;51.680;5.394;2023-02-12T03:39:00;103812.63;;;8.24;82.95
45523;BME280;31254;51.680;5.394;2023-02-12T03:41:46;103788.09;;;8.03;83.08
45523;BME280;31254;51.680;5.394;2023-02-12T03:44:22;103849.91;;;8.46;83.17
45523;BME280;31254;51.680;5.394;2023-02-12T03:47:24;103851.72;;;8.45;83.12
45523;BME280;31254;51.680;5.394;2023-02-12T03:50:26;103848.09;;;8.45;83.02
45523;BME280;31254;51.680;5.394;2023-02-12T03:52:57;103853.56;;;8.45;83.13
45523;BME280;31254;51.680;5.394;2023-02-12T03:55:26;103868.94;;;8.46;83.17
45523;BME280;31254;51.680;5.394;2023-02-12T03:57:57;103841.13;;;8.37;83.06
45523;BME280;31254;51.680;5.394;2023-02-12T04:00:29;103855.41;;;8.44;82.84
45523;BME280;31254;51.680;5.394;2023-02-12T04:02:58;103843.91;;;8.36;82.94
45523;BME280;31254;51.680;5.394;2023-02-12T04:05:28;103818.25;;;8.19;83.05
45523;BME280;31254;51.680;5.394;2023-02-12T04:07:56;103859.09;;;8.41;82.86
45523;BME280;31254;51.680;5.394;2023-02-12T04:13:19;103862.69;;;8.42;83.30
45523;BME280;31254;51.680;5.394;2023-02-12T04:15:59;103862.75;;;8.40;83.21
45523;BME280;31254;51.680;5.394;2023-02-12T04:18:43;103876.28;;;8.42;83.10
45523;BME280;31254;51.680;5.394;2023-02-12T04:26:56;103869.22;;;8.38;83.28
45523;BME280;31254;51.680;5.394;2023-02-12T04:29:46;103877.31;;;8.39;82.83
45523;BME280;31254;51.680;5.394;2023-02-12T04:32:32;103862.28;;;8.29;82.95
45523;BME280;31254;51.680;5.394;2023-02-12T04:35:11;103862.22;;;8.31;83.18
45523;BME280;31254;51.680;5.394;2023-02-12T04:37:47;103882.75;;;8.39;83.04
45523;BME280;31254;51.680;5.394;2023-02-12T04:40:17;103890.00;;;8.39;82.96
45523;BME280;31254;51.680;5.394;2023-02-12T04:42:51;103863.38;;;8.25;82.71
45523;BME280;31254;51.680;5.394;2023-02-12T04:45:27;103890.09;;;8.37;82.55
45523;BME280;31254;51.680;5.394;2023-02-12T04:47:54;103858.06;;;8.22;82.78
45523;BME280;31254;51.680;5.394;2023-02-12T04:50:21;103874.13;;;8.28;82.68
45523;BME280;31254;51.680;5.394;2023-02-12T04:52:47;103798.88;;;7.83;82.72
45523;BME280;31254;51.680;5.394;2023-02-12T04:55:14;103882.13;;;8.33;82.39
45523;BME280;31254;51.680;5.394;2023-02-12T04:57:41;103873.22;;;8.28;82.33
45523;BME280;31254;51.680;5.394;2023-02-12T05:00:11;103850.13;;;8.16;82.42
45523;BME280;31254;51.680;5.394;2023-02-12T05:02:38;103888.44;;;8.33;82.39
45523;BME280;31254;51.680;5.394;2023-02-12T05:05:07;103876.03;;;8.26;82.30
45523;BME280;31254;51.680;5.394;2023-02-12T05:07:39;103875.06;;;8.27;82.58
45523;BME280;31254;51.680;5.394;2023-02-12T05:10:06;103881.19;;;8.32;82.16
45523;BME280;31254;51.680;5.394;2023-02-12T05:12:36;103882.47;;;8.23;82.28
45523;BME280;31254;51.680;5.394;2023-02-12T05:15:03;103890.41;;;8.30;82.06
45523;BME280;31254;51.680;5.394;2023-02-12T05:17:32;103891.22;;;8.32;82.49
45523;BME280;31254;51.680;5.394;2023-02-12T05:19:58;103885.88;;;8.29;82.05
45523;BME280;31254;51.680;5.394;2023-02-12T05:22:25;103874.31;;;8.23;82.37
45523;BME280;31254;51.680;5.394;2023-02-12T05:24:54;103892.22;;;8.29;82.29
45523;BME280;31254;51.680;5.394;2023-02-12T05:27:21;103898.56;;;8.30;82.29
45523;BME280;31254;51.680;5.394;2023-02-12T05:29:47;103887.69;;;8.30;82.11
45523;BME280;31254;51.680;5.394;2023-02-12T05:32:14;103888.66;;;8.27;82.78
45523;BME280;31254;51.680;5.394;2023-02-12T05:34:41;103874.72;;;8.13;82.45
45523;BME280;31254;51.680;5.394;2023-02-12T05:37:10;103889.63;;;8.26;82.32
45523;BME280;31254;51.680;5.394;2023-02-12T05:39:39;103844.13;;;8.08;82.08
45523;BME280;31254;51.680;5.394;2023-02-12T05:42:10;103880.69;;;8.22;82.36
45523;BME280;31254;51.680;5.394;2023-02-12T05:44:37;103874.38;;;8.22;82.30
45523;BME280;31254;51.680;5.394;2023-02-12T05:47:03;103882.59;;;8.20;82.03
45523;BME280;31254;51.680;5.394;2023-02-12T05:49:30;103877.22;;;8.19;82.23
45523;BME280;31254;51.680;5.394;2023-02-12T05:51:57;103877.31;;;8.16;82.55
45523;BME280;31254;51.680;5.394;2023-02-12T05:54:23;103877.50;;;8.11;82.39
45523;BME280;31254;51.680;5.394;2023-02-12T05:56:50;103884.38;;;8.21;82.46
45523;BME280;31254;51.680;5.394;2023-02-12T05:59:21;103897.91;;;8.23;82.31
45523;BME280;31254;51.680;5.394;2023-02-12T06:01:49;103889.69;;;8.24;82.41
45523;BME280;31254;51.680;5.394;2023-02-12T06:04:19;103868.34;;;8.14;82.37
45523;BME280;31254;51.680;5.394;2023-02-12T06:06:48;103896.94;;;8.24;82.12
45523;BME280;31254;51.680;5.394;2023-02-12T06:09:15;103877.31;;;8.16;82.21
45523;BME280;31254;51.680;5.394;2023-02-12T06:11:42;103888.16;;;8.17;82.56
45523;BME280;31254;51.680;5.394;2023-02-12T06:14:14;103887.84;;;8.25;82.79
45523;BME280;31254;51.680;5.394;2023-02-12T06:16:47;103895.94;;;8.27;82.78
45523;BME280;31254;51.680;5.394;2023-02-12T06:19:15;103898.66;;;8.27;82.40
45523;BME280;31254;51.680;5.394;2023-02-12T06:21:45;103906.91;;;8.25;82.46
45523;BME280;31254;51.680;5.394;2023-02-12T06:24:13;103903.28;;;8.24;82.20
45523;BME280;31254;51.680;5.394;2023-02-12T06:26:43;103876.50;;;8.14;82.59
45523;BME280;31254;51.680;5.394;2023-02-12T06:29:10;103903.28;;;8.24;82.66
45523;BME280;31254;51.680;5.394;2023-02-12T06:31:36;103893.66;;;8.16;82.74
45523;BME280;31254;51.680;5.394;2023-02-12T06:34:10;103899.66;;;8.24;82.20
45523;BME280;31254;51.680;5.394;2023-02-12T06:36:39;103910.50;;;8.26;82.19
45523;BME280;31254;51.680;5.394;2023-02-12T06:39:07;103896.25;;;8.19;82.42
45523;BME280;31254;51.680;5.394;2023-02-12T06:41:34;103907.78;;;8.26;82.21
45523;BME280;31254;51.680;5.394;2023-02-12T06:44:03;103909.63;;;8.25;82.18
45523;BME280;31254;51.680;5.394;2023-02-12T06:46:30;103918.59;;;8.27;82.36
45523;BME280;31254;51.680;5.394;2023-02-12T06:48:58;103917.66;;;8.28;82.13
45523;BME280;31254;51.680;5.394;2023-02-12T06:51:27;103900.88;;;8.17;82.49
45523;BME280;31254;51.680;5.394;2023-02-12T06:53:54;103891.16;;;8.10;82.47
45523;BME280;31254;51.680;5.394;2023-02-12T06:56:22;103788.38;;;7.50;82.27
45523;BME280;31254;51.680;5.394;2023-02-12T06:58:55;103916.00;;;8.24;82.09
45523;BME280;31254;51.680;5.394;2023-02-12T07:01:25;103921.31;;;8.27;82.56
45523;BME280;31254;51.680;5.394;2023-02-12T07:03:54;103754.94;;;7.24;82.47
45523;BME280;31254;51.680;5.394;2023-02-12T07:06:22;103925.06;;;8.24;82.25
45523;BME280;31254;51.680;5.394;2023-02-12T07:08:50;103934.97;;;8.26;82.32
45523;BME280;31254;51.680;5.394;2023-02-12T07:11:17;103926.88;;;8.24;82.22
45523;BME280;31254;51.680;5.394;2023-02-12T07:13:44;103905.72;;;8.09;82.42
45523;BME280;31254;51.680;5.394;2023-02-12T07:16:14;103925.88;;;8.27;82.39
45523;BME280;31254;51.680;5.394;2023-02-12T07:18:42;103918.88;;;8.19;82.22
45523;BME280;31254;51.680;5.394;2023-02-12T07:21:11;103932.25;;;8.26;82.52
45523;BME280;31254;51.680;5.394;2023-02-12T07:23:38;103913.72;;;8.13;82.26
45523;BME280;31254;51.680;5.394;2023-02-12T07:26:09;103946.56;;;8.31;82.27
45523;BME280;31254;51.680;5.394;2023-02-12T07:28:36;103945.69;;;8.30;82.02
45523;BME280;31254;51.680;5.394;2023-02-12T07:31:09;103703.69;;;6.90;81.79
45523;BME280;31254;51.680;5.394;2023-02-12T07:33:37;103945.69;;;8.30;82.49
45523;BME280;31254;51.680;5.394;2023-02-12T07:36:09;103927.91;;;8.21;82.17
45523;BME280;31254;51.680;5.394;2023-02-12T07:38:39;103944.78;;;8.30;82.58
45523;BME280;31254;51.680;5.394;2023-02-12T07:41:11;103931.50;;;8.22;82.57
45523;BME280;31254;51.680;5.394;2023-02-12T07:43:40;103951.81;;;8.35;82.15
45523;BME280;31254;51.680;5.394;2023-02-12T07:46:14;103866.81;;;7.83;82.30
45523;BME280;31254;51.680;5.394;2023-02-12T07:48:43;103944.75;;;8.31;82.20
45523;BME280;31254;51.680;5.394;2023-02-12T07:51:15;103962.59;;;8.38;82.00
45523;BME280;31254;51.680;5.394;2023-02-12T07:53:45;103937.56;;;8.29;82.31
45523;BME280;31254;51.680;5.394;2023-02-12T07:56:13;103964.38;;;8.39;82.12
45523;BME280;31254;51.680;5.394;2023-02-12T07:58:41;103967.91;;;8.41;82.06
45523;BME280;31254;51.680;5.394;2023-02-12T08:01:17;103962.44;;;8.43;82.07
45523;BME280;31254;51.680;5.394;2023-02-12T08:03:46;103934.84;;;8.29;82.05
45523;BME280;31254;51.680;5.394;2023-02-12T08:06:21;103964.16;;;8.46;81.96
45523;BME280;31254;51.680;5.394;2023-02-12T08:08:56;103958.56;;;8.49;81.85
45523;BME280;31254;51.680;5.394;2023-02-12T08:11:24;103901.81;;;8.16;81.92
45523;BME280;31254;51.680;5.394;2023-02-12T08:13:51;103882.41;;;8.01;81.58
45523;BME280;31254;51.680;5.394;2023-02-12T08:16:25;103972.91;;;8.54;81.54
45523;BME280;31254;51.680;5.394;2023-02-12T08:18:55;103899.13;;;8.14;82.04
45523;BME280;31254;51.680;5.394;2023-02-12T08:21:42;103971.81;;;8.58;81.30
45523;BME280;31254;51.680;5.394;2023-02-12T08:24:09;103972.59;;;8.62;81.42
45523;BME280;31254;51.680;5.394;2023-02-12T08:26:37;103941.56;;;8.44;81.50
45523;BME280;31254;51.680;5.394;2023-02-12T08:29:10;103929.22;;;8.33;81.08
45523;BME280;31254;51.680;5.394;2023-02-12T08:31:39;103952.91;;;8.55;81.24
45523;BME280;31254;51.680;5.394;2023-02-12T08:34:15;103960.88;;;8.59;81.16
45523;BME280;31254;51.680;5.394;2023-02-12T08:36:42;103968.97;;;8.61;80.87
45523;BME280;31254;51.680;5.394;2023-02-12T08:39:09;103973.31;;;8.67;81.05
45523;BME280;31254;51.680;5.394;2023-02-12T08:41:36;103979.50;;;8.70;81.17
45523;BME280;31254;51.680;5.394;2023-02-12T08:44:04;103992.75;;;8.80;80.88
45523;BME280;31254;51.680;5.394;2023-02-12T08:46:34;103975.81;;;8.71;81.03
45523;BME280;31254;51.680;5.394;2023-02-12T08:49:06;103995.22;;;8.86;81.05
45523;BME280;31254;51.680;5.394;2023-02-12T08:51:35;103997.81;;;8.89;80.94
45523;BME280;31254;51.680;5.394;2023-02-12T08:54:05;103984.25;;;8.87;80.30
45523;BME280;31254;51.680;5.394;2023-02-12T08:56:33;103982.50;;;8.86;80.52
45523;BME280;31254;51.680;5.394;2023-02-12T08:59:01;103993.97;;;8.94;80.33
45523;BME280;31254;51.680;5.394;2023-02-12T09:01:31;103999.34;;;8.96;80.46
45523;BME280;31254;51.680;5.394;2023-02-12T09:03:59;103982.38;;;8.89;79.67
45523;BME280;31254;51.680;5.394;2023-02-12T09:06:31;103989.28;;;8.98;80.21
45523;BME280;31254;51.680;5.394;2023-02-12T09:08:58;104006.25;;;9.05;80.00
45523;BME280;31254;51.680;5.394;2023-02-12T09:11:26;104005.25;;;9.07;79.63
45523;BME280;31254;51.680;5.394;2023-02-12T09:14:01;103995.47;;;9.02;79.42
45523;BME280;31254;51.680;5.394;2023-02-12T09:16:32;104000.50;;;9.12;80.03
45523;BME280;31254;51.680;5.394;2023-02-12T09:18:59;103955.09;;;8.91;79.53
45523;BME280;31254;51.680;5.394;2023-02-12T09:21:30;104000.31;;;9.17;79.30
45523;BME280;31254;51.680;5.394;2023-02-12T09:23:57;104006.50;;;9.21;79.54
45523;BME280;31254;51.680;5.394;2023-02-12T09:26:27;103993.00;;;9.18;79.43
45523;BME280;31254;51.680;5.394;2023-02-12T09:28:54;104007.19;;;9.26;79.08
45523;BME280;31254;51.680;5.394;2023-02-12T09:31:23;103985.72;;;9.18;78.71
45523;BME280;31254;51.680;5.394;2023-02-12T09:33:53;104005.09;;;9.32;78.50
45523;BME280;31254;51.680;5.394;2023-02-12T09:36:21;104004.22;;;9.32;78.89
45523;BME280;31254;51.680;5.394;2023-02-12T09:38:50;103996.97;;;9.31;78.74
45523;BME280;31254;51.680;5.394;2023-02-12T09:44:40;104018.34;;;9.42;78.14
45523;BME280;31254;51.680;5.394;2023-02-12T09:47:19;104012.81;;;9.43;78.30
45523;BME280;31254;51.680;5.394;2023-02-12T09:52:45;104013.44;;;9.50;78.40
45523;BME280;31254;51.680;5.394;2023-02-12T09:55:16;103979.69;;;9.32;77.97
45523;BME280;31254;51.680;5.394;2023-02-12T09:57:46;104000.69;;;9.50;78.11
45523;BME280;31254;51.680;5.394;2023-02-12T10:00:27;104010.66;;;9.51;77.63
45523;BME280;31254;51.680;5.394;2023-02-12T10:03:01;103999.13;;;9.45;77.81
45523;BME280;31254;51.680;5.394;2023-02-12T10:05:35;104011.72;;;9.47;77.57
45523;BME280;31254;51.680;5.394;2023-02-12T10:16:56;104019.50;;;9.57;77.19
45523;BME280;31254;51.680;5.394;2023-02-12T10:24:42;103994.31;;;9.51;77.09
45523;BME280;31254;51.680;5.394;2023-02-12T10:27:19;104013.66;;;9.66;76.75
45523;BME280;31254;51.680;5.394;2023-02-12T10:29:50;104003.03;;;9.60;76.84
45523;BME280;31254;51.680;5.394;2023-02-12T10:32:23;104011.00;;;9.64;77.06
45523;BME280;31254;51.680;5.394;2023-02-12T10:34:52;104003.84;;;9.62;76.67
45523;BME280;31254;51.680;5.394;2023-02-12T10:39:58;104006.09;;;9.73;76.74
45523;BME280;31254;51.680;5.394;2023-02-12T10:42:43;103999.66;;;9.75;76.74
45523;BME280;31254;51.680;5.394;2023-02-12T10:45:15;104007.59;;;9.80;76.37
45523;BME280;31254;51.680;5.394;2023-02-12T10:47:43;104001.13;;;9.82;76.52
45523;BME280;31254;51.680;5.394;2023-02-12T10:50:47;104005.50;;;9.86;76.53
45523;BME280;31254;51.680;5.394;2023-02-12T10:53:16;104017.09;;;9.92;76.33
45523;BME280;31254;51.680;5.394;2023-02-12T10:55:44;103991.88;;;9.86;75.93
45523;BME280;31254;51.680;5.394;2023-02-12T10:58:22;103997.16;;;9.89;76.17
45523;BME280;31254;51.680;5.394;2023-02-12T11:00:59;104003.09;;;9.99;75.92
45523;BME280;31254;51.680;5.394;2023-02-12T11:03:29;104000.28;;;10.01;75.75
45523;BME280;31254;51.680;5.394;2023-02-12T11:06:23;104001.19;;;10.01;75.63
45523;BME280;31254;51.680;5.394;2023-02-12T11:08:51;104001.81;;;10.08;75.69
45523;BME280;31254;51.680;5.394;2023-02-12T11:11:21;103997.28;;;10.07;75.41
45523;BME280;31254;51.680;5.394;2023-02-12T11:14:06;103993.75;;;10.05;75.24
45523;BME280;31254;51.680;5.394;2023-02-12T11:16:51;103993.63;;;10.08;75.12
45523;BME280;31254;51.680;5.394;2023-02-12T11:19:23;103992.66;;;10.09;75.31
45523;BME280;31254;51.680;5.394;2023-02-12T11:21:51;103995.09;;;10.15;75.00
45523;BME280;31254;51.680;5.394;2023-02-12T11:27:12;103995.94;;;10.17;74.62
45523;BME280;31254;51.680;5.394;2023-02-12T11:32:36;103984.88;;;10.20;74.71
45523;BME280;31254;51.680;5.394;2023-02-12T11:35:16;103987.44;;;10.23;74.97
45523;BME280;31254;51.680;5.394;2023-02-12T11:37:55;103981.97;;;10.23;74.46
45523;BME280;31254;51.680;5.394;2023-02-12T11:40:26;103972.19;;;10.19;74.61
45523;BME280;31254;51.680;5.394;2023-02-12T11:43:03;103986.34;;;10.28;74.43
45523;BME280;31254;51.680;5.394;2023-02-12T11:45:40;103981.59;;;10.33;74.00
45523;BME280;31254;51.680;5.394;2023-02-12T11:50:53;103976.13;;;10.33;74.01
45523;BME280;31254;51.680;5.394;2023-02-12T11:53:32;103975.25;;;10.32;73.66
45523;BME280;31254;51.680;5.394;2023-02-12T11:56:04;103957.94;;;10.32;73.67
45523;BME280;31254;51.680;5.394;2023-02-12T11:58:31;103971.34;;;10.38;73.54
45523;BME280;31254;51.680;5.394;2023-02-12T12:06:25;103945.41;;;10.28;73.31
45523;BME280;31254;51.680;5.394;2023-02-12T12:09:03;103970.38;;;10.39;73.47
45523;BME280;31254;51.680;5.394;2023-02-12T12:11:56;103959.19;;;10.45;73.06
45523;BME280;31254;51.680;5.394;2023-02-12T12:14:31;103941.25;;;10.39;72.73
45523;BME280;31254;51.680;5.394;2023-02-12T12:17:18;103956.31;;;10.48;72.82
45523;BME280;31254;51.680;5.394;2023-02-12T12:20:14;103958.06;;;10.49;72.60
45523;BME280;31254;51.680;5.394;2023-02-12T12:23:13;103962.56;;;10.50;72.56
45523;BME280;31254;51.680;5.394;2023-02-12T12:25:56;103952.38;;;10.54;72.76
45523;BME280;31254;51.680;5.394;2023-02-12T12:28:41;103950.84;;;10.48;72.47
45523;BME280;31254;51.680;5.394;2023-02-12T12:34:23;103931.00;;;10.45;72.70
45523;BME280;31254;51.680;5.394;2023-02-12T13:08:03;103923.53;;;10.67;72.01
45523;BME280;31254;51.680;5.394;2023-02-12T13:10:39;103826.28;;;10.09;71.68
45523;BME280;31254;51.680;5.394;2023-02-12T13:24:30;103910.50;;;10.55;71.63
45523;BME280;31254;51.680;5.394;2023-02-12T13:27:13;103906.84;;;10.54;71.53
45523;BME280;31254;51.680;5.394;2023-02-12T13:29:45;103907.91;;;10.52;71.47
45523;BME280;31254;51.680;5.394;2023-02-12T13:32:22;103913.50;;;10.49;71.18
45523;BME280;31254;51.680;5.394;2023-02-12T13:34:52;103914.38;;;10.49;71.33
45523;BME280;31254;51.680;5.394;2023-02-12T13:37:41;103913.38;;;10.52;71.57
45523;BME280;31254;51.680;5.394;2023-02-12T13:40:29;103907.75;;;10.55;71.25
45523;BME280;31254;51.680;5.394;2023-02-12T13:45:45;103903.25;;;10.54;71.60
45523;BME280;31254;51.680;5.394;2023-02-12T13:50:54;103903.41;;;10.51;71.52
45523;BME280;31254;51.680;5.394;2023-02-12T13:56:31;103900.88;;;10.46;71.13
45523;BME280;31254;51.680;5.394;2023-02-12T13:59:03;103900.00;;;10.46;71.02
45523;BME280;31254;51.680;5.394;2023-02-12T14:01:43;103894.78;;;10.41;71.09
45523;BME280;31254;51.680;5.394;2023-02-12T14:04:24;103886.53;;;10.42;70.94
45523;BME280;31254;51.680;5.394;2023-02-12T14:07:05;103872.28;;;10.36;71.14
45523;BME280;31254;51.680;5.394;2023-02-12T14:12:11;103885.88;;;10.37;71.08
45523;BME280;31254;51.680;5.394;2023-02-12T14:14:46;103886.13;;;10.31;71.50
45523;BME280;31254;51.680;5.394;2023-02-12T14:28:13;103874.63;;;10.24;71.45
45523;BME280;31254;51.680;5.394;2023-02-12T14:30:43;103878.16;;;10.27;71.27
45523;BME280;31254;51.680;5.394;2023-02-12T14:33:19;103882.88;;;10.23;71.26
45523;BME280;31254;51.680;5.394;2023-02-12T14:35:48;103868.59;;;10.18;71.76
45523;BME280;31254;51.680;5.394;2023-02-12T14:41:34;103849.34;;;10.02;71.76
45523;BME280;31254;51.680;5.394;2023-02-12T14:47:03;103839.22;;;10.04;71.52
45523;BME280;31254;51.680;5.394;2023-02-12T14:49:36;103869.47;;;10.18;71.93
45523;BME280;31254;51.680;5.394;2023-02-12T14:57:55;103864.47;;;10.09;72.20
45523;BME280;31254;51.680;5.394;2023-02-12T15:00:27;103857.38;;;10.05;72.00
45523;BME280;31254;51.680;5.394;2023-02-12T15:03:13;103856.28;;;10.09;72.40
45523;BME280;31254;51.680;5.394;2023-02-12T15:06:06;103855.38;;;10.09;72.33
45523;BME280;31254;51.680;5.394;2023-02-12T15:08:57;103865.47;;;10.06;71.99
45523;BME280;31254;51.680;5.394;2023-02-12T15:17:21;103845.16;;;9.95;72.12
45523;BME280;31254;51.680;5.394;2023-02-12T15:19:59;103839.00;;;9.89;72.13
45523;BME280;31254;51.680;5.394;2023-02-12T15:22:38;103839.16;;;9.86;72.28
45523;BME280;31254;51.680;5.394;2023-02-12T15:27:59;103842.19;;;9.80;72.19
45523;BME280;31254;51.680;5.394;2023-02-12T15:30:34;103837.47;;;9.84;72.49
45523;BME280;31254;51.680;5.394;2023-02-12T15:33:04;103774.81;;;9.44;72.77
45523;BME280;31254;51.680;5.394;2023-02-12T15:35:37;103851.69;;;9.91;72.74
45523;BME280;31254;51.680;5.394;2023-02-12T15:38:06;103839.25;;;9.85;72.61
45523;BME280;31254;51.680;5.394;2023-02-12T15:40:33;103824.97;;;9.78;72.60
45523;BME280;31254;51.680;5.394;2023-02-12T15:43:03;103854.56;;;9.87;72.95
45523;BME280;31254;51.680;5.394;2023-02-12T15:45:34;103801.19;;;9.63;72.91
45523;BME280;31254;51.680;5.394;2023-02-12T15:48:12;103837.47;;;9.84;72.58
45523;BME280;31254;51.680;5.394;2023-02-12T15:53:16;103827.03;;;9.73;72.92
45523;BME280;31254;51.680;5.394;2023-02-12T15:55:47;103851.31;;;9.79;73.15
45523;BME280;31254;51.680;5.394;2023-02-12T15:58:21;103841.50;;;9.75;73.14
45523;BME280;31254;51.680;5.394;2023-02-12T16:00:53;103848.06;;;9.71;73.04
45523;BME280;31254;51.680;5.394;2023-02-12T16:06:01;103843.00;;;9.62;73.27
45523;BME280;31254;51.680;5.394;2023-02-12T16:08:31;103826.19;;;9.52;73.58
45523;BME280;31254;51.680;5.394;2023-02-12T16:11:00;103840.44;;;9.59;73.16
45523;BME280;31254;51.680;5.394;2023-02-12T16:13:57;103824.66;;;9.46;73.70